createdAt,value
2017-02-23T18:37:27.631Z,22.67
2017-02-23T18:38:24.743Z,22.63
2017-02-23T18:39:24.700Z,22.76
2017-02-23T18:40:24.720Z,23.17
2017-02-23T18:41:24.805Z,23.34
2017-02-23T18:42:24.732Z,23.28
2017-02-23T18:43:25.531Z,23.49
2017-02-23T18:44:24.695Z,23.55
2017-02-23T18:45:24.707Z,23.67
2017-02-23T18:46:24.756Z,23.67
2017-02-23T18:47:24.717Z,23.7
2017-02-23T18:48:24.687Z,23.82
2017-02-23T18:49:24.777Z,23.71
2017-02-23T18:50:24.718Z,23.74
2017-02-23T18:51:24.763Z,23.85
2017-02-23T18:52:24.723Z,23.86
2017-02-23T18:53:24.705Z,24.03
2017-02-23T18:54:24.726Z,24.16
2017-02-23T18:55:24.795Z,24.13
2017-02-23T18:56:24.800Z,24.01
2017-02-23T18:57:27.027Z,23.94
2017-02-23T18:58:24.712Z,23.88
2017-02-23T18:59:24.709Z,23.96
2017-02-23T19:00:24.931Z,23.91
2017-02-23T19:01:24.800Z,24.03
2017-02-23T19:02:24.747Z,24.04
2017-02-23T19:03:24.717Z,24
2017-02-23T19:04:24.802Z,24.07
2017-02-23T19:05:24.749Z,24
2017-02-23T19:06:24.733Z,24
2017-02-23T19:07:24.762Z,24.06
2017-02-23T19:08:24.752Z,24.25
2017-02-23T19:09:25.473Z,24.32
2017-02-23T19:10:26.542Z,24.53
2017-02-23T19:11:26.308Z,24.4
2017-02-23T19:12:24.953Z,24.38
2017-02-23T19:13:24.741Z,24.32
2017-02-23T19:14:24.748Z,24.29
2017-02-23T19:15:24.774Z,24.37
2017-02-23T19:16:24.741Z,24.43
2017-02-23T19:17:24.751Z,24.34
2017-02-23T19:18:24.758Z,24.43
2017-02-23T19:19:24.781Z,24.36
2017-02-23T19:20:24.770Z,24.25
2017-02-23T19:21:24.757Z,24.28
2017-02-23T19:22:24.766Z,24.22
2017-02-23T19:23:24.769Z,24.34
2017-02-23T19:24:24.796Z,24.31
2017-02-23T19:25:24.809Z,24.25
2017-02-23T19:26:24.755Z,24.41
2017-02-23T19:27:24.776Z,24.43
2017-02-23T19:28:24.771Z,24.38
2017-02-23T19:29:24.760Z,24.47
2017-02-23T19:30:24.850Z,24.44
2017-02-23T19:31:24.762Z,24.4
2017-02-23T19:32:24.773Z,24.41
2017-02-23T19:33:24.817Z,24.34
2017-02-23T19:34:25.163Z,24.43
2017-02-23T19:35:24.799Z,24.31
2017-02-23T19:36:24.993Z,24.26
2017-02-23T19:37:24.814Z,24.22
2017-02-23T19:38:24.798Z,24.32
2017-02-23T19:39:24.807Z,24.24
2017-02-23T19:40:24.771Z,24.14
2017-02-23T19:41:24.812Z,24.14
2017-02-23T19:42:24.809Z,24.09
2017-02-23T19:43:24.790Z,23.94
2017-02-23T19:44:24.849Z,23.96
2017-02-23T19:45:24.790Z,24.04
2017-02-23T19:46:24.852Z,23.96
2017-02-23T19:47:24.798Z,24.11
2017-02-23T19:48:24.802Z,24.06
2017-02-23T19:49:25.076Z,24.01
2017-02-23T19:50:24.796Z,23.81
2017-02-23T19:51:24.805Z,23.85
2017-02-23T19:52:24.855Z,23.81
2017-02-23T19:53:24.799Z,23.76
2017-02-23T19:54:24.885Z,23.77
2017-02-23T19:55:24.830Z,23.73
2017-02-23T19:56:24.796Z,23.71
2017-02-23T19:57:24.828Z,23.73
2017-02-23T19:58:24.832Z,24.11
2017-02-23T19:59:24.819Z,24.14
2017-02-23T20:00:24.847Z,24.21
2017-02-23T20:01:24.853Z,24.29
2017-02-23T20:02:24.825Z,24.36
2017-02-23T20:03:25.010Z,24.46
2017-02-23T20:04:24.838Z,24.43
2017-02-23T20:05:24.890Z,24.43
2017-02-23T20:06:24.847Z,24.32
2017-02-23T20:07:24.854Z,24.28
2017-02-23T20:08:24.902Z,24.25
2017-02-23T20:10:27.690Z,24.19
2017-02-23T20:11:24.830Z,24.22
2017-02-23T20:12:24.899Z,24.18
2017-02-23T20:13:24.857Z,24.14
2017-02-23T20:14:24.912Z,24.09
2017-02-23T20:15:24.885Z,24.1
2017-02-23T20:16:24.849Z,24.04
2017-02-23T20:17:24.868Z,24.11
2017-02-23T20:18:24.884Z,24.04
2017-02-23T20:19:24.892Z,24
2017-02-23T20:20:24.890Z,24.19
2017-02-23T20:21:25.100Z,24.14
2017-02-23T20:22:24.926Z,24.11
2017-02-23T20:23:24.889Z,24.11
2017-02-23T20:24:24.861Z,24.18
2017-02-23T20:25:24.975Z,24.14
2017-02-23T20:26:24.869Z,24.13
2017-02-23T20:27:24.886Z,24.1
2017-02-23T20:28:24.882Z,24.11
2017-02-23T20:29:24.890Z,24.31
2017-02-23T20:30:24.958Z,24.36
2017-02-23T20:31:25.037Z,24.37
2017-02-23T20:32:24.895Z,24.22
2017-02-23T20:33:24.868Z,24.18
2017-02-23T20:34:24.895Z,24.21
2017-02-23T20:35:24.934Z,24.19
2017-02-23T20:36:24.930Z,24.1
2017-02-23T20:37:24.882Z,24.06
2017-02-23T20:38:24.900Z,24.03
2017-02-23T20:39:24.896Z,24.06
2017-02-23T20:40:24.959Z,24.06
2017-02-23T20:41:24.925Z,24
2017-02-23T20:42:24.886Z,23.94
2017-02-23T20:43:24.932Z,23.95
2017-02-23T20:44:24.981Z,23.95
2017-02-23T20:45:24.892Z,23.95
2017-02-23T20:46:24.927Z,24.03
2017-02-23T20:47:24.907Z,24.07
2017-02-23T20:48:24.973Z,24.09
2017-02-23T20:49:24.899Z,24.07
2017-02-23T20:50:24.920Z,24.04
2017-02-23T20:51:24.908Z,24
2017-02-23T20:52:24.942Z,23.99
2017-02-23T20:53:24.965Z,24.11
2017-02-23T20:54:24.909Z,24.1
2017-02-23T20:55:24.961Z,24.09
2017-02-23T20:56:24.933Z,24.13
2017-02-23T20:57:24.935Z,24.16
2017-02-23T20:58:24.975Z,24.25
2017-02-23T20:59:24.954Z,24.22
2017-02-23T21:00:24.941Z,24.25
2017-02-23T21:01:24.928Z,24.36
2017-02-23T21:02:25.006Z,24.4
2017-02-23T21:03:25.010Z,24.38
2017-02-23T21:04:24.923Z,24.38
2017-02-23T21:05:24.931Z,24.47
2017-02-23T21:06:24.993Z,24.48
2017-02-23T21:07:24.957Z,24.51
2017-02-23T21:08:24.942Z,24.56
2017-02-23T21:09:25.009Z,24.51
2017-02-23T21:10:24.951Z,24.58
2017-02-23T21:11:24.969Z,24.51
2017-02-23T21:12:24.977Z,24.55
2017-02-23T21:13:24.965Z,24.46
2017-02-23T21:14:25.010Z,24.43
2017-02-23T21:15:34.295Z,24.31
2017-02-23T21:16:25.002Z,24.25
2017-02-23T21:17:24.978Z,24.19
2017-02-23T21:18:24.945Z,24.29
2017-02-23T21:19:25.024Z,24.37
2017-02-23T21:20:25.100Z,24.44
2017-02-23T21:21:24.965Z,24.59
2017-02-23T21:22:24.961Z,24.63
2017-02-23T21:23:25.056Z,24.62
2017-02-23T21:25:25.021Z,24.61
2017-02-23T21:26:24.981Z,24.65
2017-02-23T21:27:25.175Z,24.62
2017-02-23T21:28:25.012Z,24.44
2017-02-23T21:29:24.967Z,24.44
2017-02-23T21:30:24.975Z,24.41
2017-02-23T21:31:24.990Z,24.31
2017-02-23T21:32:24.985Z,24.31
2017-02-23T21:33:25.019Z,24.32
2017-02-23T21:34:25.103Z,24.31
2017-02-23T21:35:24.979Z,24.38
2017-02-23T21:36:25.019Z,24.44
2017-02-23T21:37:24.984Z,24.38
2017-02-23T21:38:25.154Z,24.38
2017-02-23T21:39:25.069Z,24.58
2017-02-23T21:40:26.484Z,24.56
2017-02-23T21:41:25.002Z,24.55
2017-02-23T21:42:25.040Z,24.63
2017-02-23T21:43:25.014Z,24.53
2017-02-23T21:44:25.055Z,24.53
2017-02-23T21:45:25.009Z,24.61
2017-02-23T21:46:25.397Z,24.41
2017-02-23T21:47:25.173Z,24.36
2017-02-23T21:48:25.063Z,24.32
2017-02-23T21:49:25.036Z,24.24
2017-02-23T21:50:25.217Z,24.18
2017-02-23T21:51:25.008Z,24.38
2017-02-23T21:52:25.011Z,24.55
2017-02-23T21:53:25.064Z,24.66
2017-02-23T21:54:25.013Z,24.61
2017-02-23T21:55:25.020Z,24.74
2017-02-23T21:56:25.023Z,24.69
2017-02-23T21:57:25.150Z,24.63
2017-02-23T21:58:25.102Z,24.41
2017-02-23T21:59:26.093Z,24.46
2017-02-23T22:00:25.031Z,24.34
2017-02-23T22:01:25.018Z,24.26
2017-02-23T22:02:25.030Z,24.34
2017-02-23T22:03:25.892Z,24.37
2017-02-23T22:04:25.060Z,24.26
2017-02-23T22:05:25.046Z,24.21
2017-02-23T22:06:25.068Z,24.09
2017-02-23T22:07:25.035Z,24.06
2017-02-23T22:08:25.115Z,24.09
2017-02-23T22:09:25.243Z,24.1
2017-02-23T22:10:25.056Z,24.25
2017-02-23T22:11:25.074Z,24.1
2017-02-23T22:12:25.131Z,24.19
2017-02-23T22:13:25.083Z,24.22
2017-02-23T22:14:25.090Z,24.13
2017-02-23T22:15:25.101Z,24.13
2017-02-23T22:16:25.245Z,24.11
2017-02-23T22:17:25.083Z,24.18
2017-02-23T22:18:25.080Z,24.1
2017-02-23T22:19:25.100Z,24.18
2017-02-23T22:20:25.091Z,24.18
2017-02-23T22:21:25.120Z,24.31
2017-02-23T22:22:25.142Z,24.34
2017-02-23T22:23:25.073Z,24.29
2017-02-23T22:24:25.099Z,24.18
